Airfield :
LOGIN :

Register | Disclaimer

   EN    FR    IT 

 










Legend :    VFR   Marginal VFR   IFR   Intensive IFR   Very Intensive IFR
Visi :
Ceiling :
>= 8 km
>= 3000ft
5 to 8 km
1000 to 3000 ft
1500m to 5 km
500 to 1000 ft
800 to 1500m
200 to 500 ft
< 800m
< 200 ft
Symbols :   Thunderstorms  Fog  Heavy snow  Heavy precipitations  Wind > 20 kt
SIGMETs :     Misc.  Thunderstorms  Icing  Turbulence  Mountain Waves  Volcanic Ashes






- Airport Elevation : 1411 ft
- IATA code : GVA


LSGG - Genève Cointrin

CURRENT METAR :
  • 040020Z AUTO 30003KT 280V350 9999 BKN090 SCT///CB 20/19 Q1020 RERA NOSIG

EXPIRED METARs :
  • 032350Z AUTO VRB02KT 9999 +RA FEW060CB SCT095 20/19 Q1019 BECMG NSW
  • 031520Z VRB02KT CAVOK 30/14 Q1017 NOSIG
  • 032320Z AUTO VRB02KT 9999 VCTS BKN090 SCT///CB 20/19 Q1020 RERA TEMPO TSRA
  • 032250Z AUTO 30004KT 9000 -RA FEW055TCU 20/18 Q1019 NOSIG
  • 032150Z AUTO 01004KT 310V070 9999 SCT///CB 20/18 Q1019 NOSIG

TAF TAF LSGG
Valid from the 04 at 00:00 until the 05 at 06:00 UTC


032325Z 0400/0506 VRB02KT 9999 SCT090 TX27/0415Z TN17/0405Z TN15/0504Z
TEMPO 0400/0410 TSRA SCT060CB
PROB40
TEMPO 0400/0410 27015G25KT
BECMG 0410/0412 04007KT
PROB30
TEMPO 0415/0424 TSRA SCT060CB
ATIS : +41 22 417 40 81



MET'MAP, your aeronautical weather chart ! - Copyright ORBIFLY December 2007 - Disclaimer

ORBIFLY MET'MAP TEAM :

Programming & Development : Alexandra Zaïnal
Original concept : Baudouin d'Aumeries
Technical & hardware support : Manuel Goepfert
Assistance : Marc-Olivier Méhu




SOURCES & CREDITS :

   NOAA